Saturday, August 27, 2016
20:37 UTC
  |  Log In   |  Register Free
Airport Search:

Grant Co International Airport
(KMWH)

FAA data valid effective Jul 21 2016 - Sep 15 2016 (unless otherwise noted).

 
 
 
 
 
 
 
 
 
 
 
 
 
 
Summary: Grant Co International (MWH)

Weather Summary


METAR for MWH is not available. Closest METAR is for
METAR

METAR KMWH 271952Z 24015G21KT 10SM CLR 28/06 A2972 RMK AO2 SLP056 T02830061

METAR KMWH 271852Z 24015G21KT 10SM CLR 29/06 A2972 RMK AO2 SLP055 T02890056

METAR KMWH 271752Z 25017KT 10SM CLR 29/06 A2972 RMK AO2 SLP054 T02940056 10300 20156 55000

METAR KEPH 271953Z 25007KT 10SM CLR 26/09 A2971 RMK AO2 SLP052 T02560089

TAF for MWH is not available.
TAF

KMWH - TAF KMWH 271728Z 2718/2818 24012G18KT P6SM BKN120 OVC150

KMWH - FM272100 24019G30KT P6SM BKN120 BKN150

KMWH - TEMPO 2722/2801 5SM BLDU

KMWH - FM280400 27014KT P6SM SCT150

KMWH - FM280700 26009KT P6SM SKC

KMWH - FM281300 17006KT P6SM SKC =

GlobalAir.com is loading additional information.
 Current Weather at MWH
84.0 F° (28.9 C°)
Fair
Southwest winds at 17.3 mph
Pressure:
29.72 in
Humidity:
23%
Wind:
from the Southwest at 17.3 gusting to 24.2 MPH (15 gusting to 21 KT)
Dew Point:
42.1 F° (5.6 C°)
Visibility:
10.00 mi
MWH NOAA Radar

Communications Summary


CTAF118.25
UNICOM122.95
ATIS119.05
WX ASOS
GRANT COUNTY GROUND121.9 [0600-2200]
GRANT COUNTY TOWER118.25 (EAST)
128.0 (WEST) [0600-2200]
GRANT COUNTY APPROACH126.4
134.35
379.95
GRANT COUNTY DEPARTURE126.4
134.35
379.95
CLEARANCE DELIVERYN/A
EMERGENCY121.5
IC126.4
379.95

Terminal Procedures Summary


Airport Diagram

Approaches
More Approaches
Departures
Special Minimums

Closest Alternate Airports with Instrument Procedures

KEPH - Ephrata Municipal - 11.6 nm NW from MWH

WN95 - Brown Boy - 30.4 nm SW from MWH

WN95 - Brown Boy - 30.4 nm SW from MWH

WN95 - Brown Boy - 30.4 nm SW from MWH

KEAT - Pangborn Memorial - 43.6 nm NW from MWH

5WA5 - Ross Private Strip - 47.4 nm NW from MWH

5WA5 - Ross Private Strip - 47.4 nm NW from MWH

5WA5 - Ross Private Strip - 47.4 nm NW from MWH

KELN - Bowers Field - 58.3 nm SW from MWH

KRLD - Richland - 62.5 nm SE from MWH

Find All Airport Services Find A Hotel Find A Rental Car Find A Golf Course Find A Restaurant $100 Hamburger



FBO's on the Field
FBO Company Facility Photos Services Transportation Aviation Fuel Prices: Prices include tax
Catering Weather Repair Courtesy Rental Type 100LL JetA JetA+ MOGAS 8087
 
Columbia Pacific Aviation

Currently rated 4.2 by 1 person
FS:Avfuel
Last Updated: Jul-26
Login to update fuel prices
SS:
Contact Columbia Pacific AviationMore FBO Information
 
Million Air Moses Lake

This FBO has not yet been rated
FS:Avfuel
Last Updated: Aug-16
Login to update fuel prices
SS:
Contact Million Air Moses LakeMore FBO Information
 
Add another FBO Facility Photos Catering Weather Repair Courtesy Rental Type 100LL JetA JetA+ MOGAS 8087
Services Transportation Aviation Fuel Prices: Prices include tax


model-print
model-print
model-print
model-print